sensor_id;sensor_type;location;lat;lon;timestamp;pressure;altitude;pressure_sealevel;temperature;humidity
84248;BME280;74387;44.536;18.530;2024-03-23T00:54:25;99374.91;;;6.64;nan
84248;BME280;74387;44.536;18.530;2024-03-23T00:56:51;99373.41;;;6.71;nan
84248;BME280;74387;44.536;18.530;2024-03-23T00:59:16;99367.25;;;6.70;nan
84248;BME280;74387;44.536;18.530;2024-03-23T01:01:42;99363.09;;;6.76;nan
84248;BME280;74387;44.536;18.530;2024-03-23T01:04:08;99368.44;;;6.83;nan
84248;BME280;74387;44.536;18.530;2024-03-23T01:06:34;99368.13;;;6.95;nan
84248;BME280;74387;44.536;18.530;2024-03-23T01:09:00;99357.41;;;6.99;nan
84248;BME280;74387;44.536;18.530;2024-03-23T01:11:25;99355.50;;;7.03;nan
84248;BME280;74387;44.536;18.530;2024-03-23T01:13:53;99356.28;;;7.07;nan
84248;BME280;74387;44.536;18.530;2024-03-23T01:16:20;99343.63;;;7.04;nan
84248;BME280;74387;44.536;18.530;2024-03-23T01:18:46;99340.94;;;7.04;nan
84248;BME280;74387;44.536;18.530;2024-03-23T01:21:12;99344.78;;;7.03;nan
84248;BME280;74387;44.536;18.530;2024-03-23T01:23:38;99334.75;;;6.86;nan
84248;BME280;74387;44.536;18.530;2024-03-23T01:26:03;99343.91;;;6.74;nan
84248;BME280;74387;44.536;18.530;2024-03-23T01:28:29;99339.69;;;6.69;nan
84248;BME280;74387;44.536;18.530;2024-03-23T01:30:55;99337.72;;;6.63;nan
84248;BME280;74387;44.536;18.530;2024-03-23T01:33:21;99336.53;;;6.53;nan
84248;BME280;74387;44.536;18.530;2024-03-23T01:35:47;99337.31;;;6.54;nan
84248;BME280;74387;44.536;18.530;2024-03-23T01:38:13;99325.81;;;6.53;nan
84248;BME280;74387;44.536;18.530;2024-03-23T01:40:39;99325.47;;;6.58;nan
84248;BME280;74387;44.536;18.530;2024-03-23T01:43:07;99316.59;;;6.47;nan
84248;BME280;74387;44.536;18.530;2024-03-23T01:45:36;99325.00;;;6.46;nan
84248;BME280;74387;44.536;18.530;2024-03-23T01:48:02;99320.78;;;6.45;nan
84248;BME280;74387;44.536;18.530;2024-03-23T01:50:30;99323.47;;;6.38;nan
84248;BME280;74387;44.536;18.530;2024-03-23T01:53:00;99327.16;;;6.15;nan
84248;BME280;74387;44.536;18.530;2024-03-23T01:55:28;99327.03;;;5.94;nan
84248;BME280;74387;44.536;18.530;2024-03-23T01:57:56;99325.03;;;5.87;nan
84248;BME280;74387;44.536;18.530;2024-03-23T02:00:31;99319.75;;;5.94;nan
84248;BME280;74387;44.536;18.530;2024-03-23T02:02:57;99317.13;;;6.05;nan
84248;BME280;74387;44.536;18.530;2024-03-23T02:05:23;99317.88;;;6.02;nan
84248;BME280;74387;44.536;18.530;2024-03-23T02:07:50;99316.72;;;6.03;nan
84248;BME280;74387;44.536;18.530;2024-03-23T02:10:16;99313.72;;;6.12;nan
84248;BME280;74387;44.536;18.530;2024-03-23T02:12:42;99311.13;;;6.22;nan
84248;BME280;74387;44.536;18.530;2024-03-23T02:15:08;99313.38;;;6.17;nan
84248;BME280;74387;44.536;18.530;2024-03-23T02:17:35;99305.75;;;6.19;nan
84248;BME280;74387;44.536;18.530;2024-03-23T02:20:02;99306.56;;;6.26;nan
84248;BME280;74387;44.536;18.530;2024-03-23T02:22:38;99304.66;;;6.30;nan
84248;BME280;74387;44.536;18.530;2024-03-23T02:25:05;99295.03;;;6.22;nan
84248;BME280;74387;44.536;18.530;2024-03-23T02:27:31;99296.97;;;6.25;nan
84248;BME280;74387;44.536;18.530;2024-03-23T02:29:57;99297.69;;;6.15;nan
84248;BME280;74387;44.536;18.530;2024-03-23T02:32:23;99295.75;;;6.12;nan
84248;BME280;74387;44.536;18.530;2024-03-23T02:34:49;99294.44;;;5.88;nan
84248;BME280;74387;44.536;18.530;2024-03-23T02:37:14;99288.31;;;5.88;nan
84248;BME280;74387;44.536;18.530;2024-03-23T02:39:40;99281.91;;;5.96;nan
84248;BME280;74387;44.536;18.530;2024-03-23T02:42:06;99279.94;;;5.89;nan
84248;BME280;74387;44.536;18.530;2024-03-23T02:44:32;99282.97;;;5.88;nan
84248;BME280;74387;44.536;18.530;2024-03-23T02:46:58;99274.38;;;5.64;nan
84248;BME280;74387;44.536;18.530;2024-03-23T02:49:24;99282.75;;;5.56;nan
84248;BME280;74387;44.536;18.530;2024-03-23T02:51:49;99279.66;;;5.54;nan
84248;BME280;74387;44.536;18.530;2024-03-23T02:54:16;99281.34;;;5.28;nan
84248;BME280;74387;44.536;18.530;2024-03-23T02:56:41;99286.13;;;5.05;nan
84248;BME280;74387;44.536;18.530;2024-03-23T02:59:07;99278.09;;;5.05;nan
84248;BME280;74387;44.536;18.530;2024-03-23T03:01:33;99277.09;;;5.24;nan
84248;BME280;74387;44.536;18.530;2024-03-23T03:04:00;99267.34;;;5.42;nan
84248;BME280;74387;44.536;18.530;2024-03-23T03:06:26;99271.25;;;5.52;nan
84248;BME280;74387;44.536;18.530;2024-03-23T03:08:52;99267.09;;;5.65;nan
84248;BME280;74387;44.536;18.530;2024-03-23T03:11:19;99265.28;;;5.76;nan
84248;BME280;74387;44.536;18.530;2024-03-23T03:13:45;99264.56;;;5.83;nan
84248;BME280;74387;44.536;18.530;2024-03-23T03:16:11;99259.59;;;5.85;nan
84248;BME280;74387;44.536;18.530;2024-03-23T03:18:37;99259.63;;;5.88;nan
84248;BME280;74387;44.536;18.530;2024-03-23T03:21:04;99266.19;;;5.94;nan
84248;BME280;74387;44.536;18.530;2024-03-23T03:23:31;99260.00;;;5.87;nan
84248;BME280;74387;44.536;18.530;2024-03-23T03:25:57;99253.09;;;5.82;nan
84248;BME280;74387;44.536;18.530;2024-03-23T03:28:23;99246.22;;;5.85;nan
84248;BME280;74387;44.536;18.530;2024-03-23T03:30:49;99248.13;;;5.84;nan
84248;BME280;74387;44.536;18.530;2024-03-23T03:33:15;99246.97;;;5.82;nan
84248;BME280;74387;44.536;18.530;2024-03-23T03:35:41;99245.03;;;5.79;nan
84248;BME280;74387;44.536;18.530;2024-03-23T03:38:07;99253.13;;;5.86;nan
84248;BME280;74387;44.536;18.530;2024-03-23T03:40:32;99248.91;;;5.85;nan
84248;BME280;74387;44.536;18.530;2024-03-23T03:42:58;99249.34;;;5.90;nan
84248;BME280;74387;44.536;18.530;2024-03-23T03:45:24;99249.75;;;5.92;nan
84248;BME280;74387;44.536;18.530;2024-03-23T03:47:50;99239.03;;;5.92;nan
84248;BME280;74387;44.536;18.530;2024-03-23T03:50:15;99236.38;;;5.96;nan
84248;BME280;74387;44.536;18.530;2024-03-23T03:52:41;99242.50;;;6.00;nan
84248;BME280;74387;44.536;18.530;2024-03-23T03:55:13;99234.09;;;6.01;nan
84248;BME280;74387;44.536;18.530;2024-03-23T03:57:39;99235.63;;;5.99;nan
84248;BME280;74387;44.536;18.530;2024-03-23T04:00:07;99237.88;;;5.93;nan
84248;BME280;74387;44.536;18.530;2024-03-23T04:02:40;99235.22;;;5.97;nan
84248;BME280;74387;44.536;18.530;2024-03-23T04:05:07;99236.41;;;5.99;nan
84248;BME280;74387;44.536;18.530;2024-03-23T04:07:33;99232.78;;;5.78;nan
84248;BME280;74387;44.536;18.530;2024-03-23T04:09:59;99242.09;;;5.40;nan
84248;BME280;74387;44.536;18.530;2024-03-23T04:12:25;99243.47;;;5.19;nan
84248;BME280;74387;44.536;18.530;2024-03-23T04:14:51;99239.16;;;5.08;nan
84248;BME280;74387;44.536;18.530;2024-03-23T04:17:17;99236.09;;;5.09;nan
84248;BME280;74387;44.536;18.530;2024-03-23T04:19:44;99238.47;;;5.18;nan
84248;BME280;74387;44.536;18.530;2024-03-23T04:22:09;99236.97;;;5.24;nan
84248;BME280;74387;44.536;18.530;2024-03-23T04:24:35;99235.75;;;5.11;nan
84248;BME280;74387;44.536;18.530;2024-03-23T04:27:01;99238.31;;;5.00;nan
84248;BME280;74387;44.536;18.530;2024-03-23T04:29:27;99234.88;;;4.99;nan
84248;BME280;74387;44.536;18.530;2024-03-23T04:31:53;99239.13;;;5.04;nan
84248;BME280;74387;44.536;18.530;2024-03-23T04:34:19;99234.59;;;5.12;nan
84248;BME280;74387;44.536;18.530;2024-03-23T04:36:44;99240.34;;;5.14;nan
84248;BME280;74387;44.536;18.530;2024-03-23T04:39:10;99234.97;;;5.10;nan
84248;BME280;74387;44.536;18.530;2024-03-23T04:41:36;99239.25;;;5.18;nan
84248;BME280;74387;44.536;18.530;2024-03-23T04:44:02;99233.16;;;5.25;nan
84248;BME280;74387;44.536;18.530;2024-03-23T04:46:28;99243.16;;;5.31;nan
84248;BME280;74387;44.536;18.530;2024-03-23T04:48:53;99233.66;;;5.38;nan
84248;BME280;74387;44.536;18.530;2024-03-23T04:51:23;99237.56;;;5.47;nan
84248;BME280;74387;44.536;18.530;2024-03-23T04:53:49;99231.47;;;5.50;nan
84248;BME280;74387;44.536;18.530;2024-03-23T04:56:16;99233.41;;;5.53;nan
84248;BME280;74387;44.536;18.530;2024-03-23T04:58:43;99231.91;;;5.59;nan
84248;BME280;74387;44.536;18.530;2024-03-23T05:01:09;99227.69;;;5.62;nan
84248;BME280;74387;44.536;18.530;2024-03-23T05:03:36;99231.94;;;5.66;nan
84248;BME280;74387;44.536;18.530;2024-03-23T05:06:03;99238.06;;;5.67;nan
84248;BME280;74387;44.536;18.530;2024-03-23T05:08:28;99233.47;;;5.67;nan
84248;BME280;74387;44.536;18.530;2024-03-23T05:10:55;99237.66;;;5.65;nan
84248;BME280;74387;44.536;18.530;2024-03-23T05:13:21;99238.38;;;5.55;nan
84248;BME280;74387;44.536;18.530;2024-03-23T05:15:56;99235.59;;;5.41;nan
84248;BME280;74387;44.536;18.530;2024-03-23T05:18:22;99241.22;;;5.28;nan
84248;BME280;74387;44.536;18.530;2024-03-23T05:20:48;99242.25;;;5.13;nan
84248;BME280;74387;44.536;18.530;2024-03-23T05:23:14;99234.28;;;5.20;nan
84248;BME280;74387;44.536;18.530;2024-03-23T05:25:39;99224.38;;;5.24;nan
84248;BME280;74387;44.536;18.530;2024-03-23T05:28:05;99222.53;;;5.32;nan
84248;BME280;74387;44.536;18.530;2024-03-23T05:30:32;99210.34;;;5.38;nan
84248;BME280;74387;44.536;18.530;2024-03-23T05:32:59;99214.19;;;5.41;nan
84248;BME280;74387;44.536;18.530;2024-03-23T05:35:25;99221.44;;;5.40;nan
84248;BME280;74387;44.536;18.530;2024-03-23T05:37:51;99218.69;;;5.29;nan
84248;BME280;74387;44.536;18.530;2024-03-23T05:40:16;99221.66;;;5.21;nan
84248;BME280;74387;44.536;18.530;2024-03-23T05:42:42;99221.84;;;4.94;nan
84248;BME280;74387;44.536;18.530;2024-03-23T05:45:08;99215.66;;;4.87;nan
84248;BME280;74387;44.536;18.530;2024-03-23T05:47:34;99220.56;;;4.81;nan
84248;BME280;74387;44.536;18.530;2024-03-23T05:50:00;99224.47;;;4.91;nan
84248;BME280;74387;44.536;18.530;2024-03-23T05:52:27;99218.00;;;4.92;nan
84248;BME280;74387;44.536;18.530;2024-03-23T05:54:53;99215.16;;;5.15;nan
84248;BME280;74387;44.536;18.530;2024-03-23T05:57:19;99219.84;;;5.32;nan
84248;BME280;74387;44.536;18.530;2024-03-23T05:59:45;99216.56;;;5.49;nan
84248;BME280;74387;44.536;18.530;2024-03-23T06:02:11;99212.78;;;5.61;nan
84248;BME280;74387;44.536;18.530;2024-03-23T06:04:37;99215.56;;;5.75;nan
84248;BME280;74387;44.536;18.530;2024-03-23T06:07:03;99216.69;;;5.74;nan
84248;BME280;74387;44.536;18.530;2024-03-23T06:09:32;99208.81;;;5.92;nan
84248;BME280;74387;44.536;18.530;2024-03-23T06:12:01;99211.16;;;6.08;nan
84248;BME280;74387;44.536;18.530;2024-03-23T06:14:26;99204.31;;;6.17;nan
84248;BME280;74387;44.536;18.530;2024-03-23T06:16:52;99208.94;;;6.24;nan
84248;BME280;74387;44.536;18.530;2024-03-23T06:19:18;99209.38;;;6.37;nan
84248;BME280;74387;44.536;18.530;2024-03-23T06:21:44;99205.94;;;6.50;nan
84248;BME280;74387;44.536;18.530;2024-03-23T06:24:11;99210.97;;;6.66;nan
84248;BME280;74387;44.536;18.530;2024-03-23T06:26:37;99199.88;;;6.82;nan
84248;BME280;74387;44.536;18.530;2024-03-23T06:29:03;99212.16;;;6.97;nan
84248;BME280;74387;44.536;18.530;2024-03-23T06:31:31;99212.94;;;7.08;nan
84248;BME280;74387;44.536;18.530;2024-03-23T06:33:57;99203.75;;;7.16;nan
84248;BME280;74387;44.536;18.530;2024-03-23T06:36:24;99209.50;;;7.25;nan
84248;BME280;74387;44.536;18.530;2024-03-23T06:38:50;99206.03;;;7.32;nan
84248;BME280;74387;44.536;18.530;2024-03-23T06:41:17;99202.59;;;7.42;nan
84248;BME280;74387;44.536;18.530;2024-03-23T06:43:43;99207.19;;;7.45;nan
84248;BME280;74387;44.536;18.530;2024-03-23T06:46:09;99203.34;;;7.53;nan
84248;BME280;74387;44.536;18.530;2024-03-23T06:48:35;99204.06;;;7.64;nan
84248;BME280;74387;44.536;18.530;2024-03-23T06:51:00;99206.75;;;7.75;nan
84248;BME280;74387;44.536;18.530;2024-03-23T06:53:26;99197.13;;;7.85;nan
84248;BME280;74387;44.536;18.530;2024-03-23T06:55:53;99205.19;;;7.95;nan
84248;BME280;74387;44.536;18.530;2024-03-23T06:58:24;99196.69;;;8.04;nan
84248;BME280;74387;44.536;18.530;2024-03-23T07:00:50;99201.25;;;8.14;nan
84248;BME280;74387;44.536;18.530;2024-03-23T07:03:20;99194.28;;;8.27;nan
84248;BME280;74387;44.536;18.530;2024-03-23T07:05:47;99190.81;;;8.38;nan
84248;BME280;74387;44.536;18.530;2024-03-23T07:08:13;99193.03;;;8.53;nan
84248;BME280;74387;44.536;18.530;2024-03-23T07:10:44;99193.34;;;8.66;nan
84248;BME280;74387;44.536;18.530;2024-03-23T07:13:10;99185.97;;;8.77;nan
84248;BME280;74387;44.536;18.530;2024-03-23T07:15:35;99193.19;;;8.91;nan
84248;BME280;74387;44.536;18.530;2024-03-23T07:18:01;99182.00;;;8.96;nan
84248;BME280;74387;44.536;18.530;2024-03-23T07:20:28;99183.44;;;9.08;nan
84248;BME280;74387;44.536;18.530;2024-03-23T07:22:56;99182.22;;;9.19;nan
84248;BME280;74387;44.536;18.530;2024-03-23T07:25:21;99185.53;;;9.34;nan
84248;BME280;74387;44.536;18.530;2024-03-23T07:27:48;99176.59;;;9.44;nan
84248;BME280;74387;44.536;18.530;2024-03-23T07:30:15;99171.06;;;9.58;nan
84248;BME280;74387;44.536;18.530;2024-03-23T07:32:44;99163.59;;;9.73;nan
84248;BME280;74387;44.536;18.530;2024-03-23T07:35:10;99165.72;;;9.89;nan
84248;BME280;74387;44.536;18.530;2024-03-23T07:37:37;99162.44;;;10.04;nan
84248;BME280;74387;44.536;18.530;2024-03-23T07:40:05;99156.16;;;10.15;nan
84248;BME280;74387;44.536;18.530;2024-03-23T07:42:32;99158.00;;;10.25;nan
84248;BME280;74387;44.536;18.530;2024-03-23T07:44:57;99150.13;;;10.38;nan
84248;BME280;74387;44.536;18.530;2024-03-23T07:47:23;99145.34;;;10.49;nan
84248;BME280;74387;44.536;18.530;2024-03-23T07:49:49;99139.78;;;10.59;nan
84248;BME280;74387;44.536;18.530;2024-03-23T07:52:15;99142.69;;;10.72;nan
84248;BME280;74387;44.536;18.530;2024-03-23T07:54:41;99141.69;;;10.86;nan
84248;BME280;74387;44.536;18.530;2024-03-23T07:57:07;99134.56;;;10.99;nan
84248;BME280;74387;44.536;18.530;2024-03-23T07:59:33;99130.50;;;11.11;nan
84248;BME280;74387;44.536;18.530;2024-03-23T08:01:59;99133.34;;;11.23;nan
84248;BME280;74387;44.536;18.530;2024-03-23T08:04:27;99128.13;;;11.36;nan
84248;BME280;74387;44.536;18.530;2024-03-23T08:06:53;99122.13;;;11.48;nan
84248;BME280;74387;44.536;18.530;2024-03-23T08:09:19;99124.94;;;11.61;nan
84248;BME280;74387;44.536;18.530;2024-03-23T08:11:45;99123.47;;;11.80;nan
84248;BME280;74387;44.536;18.530;2024-03-23T08:14:12;99122.00;;;11.95;nan
84248;BME280;74387;44.536;18.530;2024-03-23T08:16:38;99131.00;;;12.08;nan
84248;BME280;74387;44.536;18.530;2024-03-23T08:19:04;99121.06;;;12.21;nan
84248;BME280;74387;44.536;18.530;2024-03-23T08:21:30;99112.31;;;12.33;nan
84248;BME280;74387;44.536;18.530;2024-03-23T08:23:56;99116.94;;;12.49;nan
84248;BME280;74387;44.536;18.530;2024-03-23T08:26:22;99111.56;;;12.65;nan
84248;BME280;74387;44.536;18.530;2024-03-23T08:28:48;99108.84;;;12.82;nan
84248;BME280;74387;44.536;18.530;2024-03-23T08:31:14;99102.66;;;12.97;nan
84248;BME280;74387;44.536;18.530;2024-03-23T08:33:40;99091.38;;;13.15;nan
84248;BME280;74387;44.536;18.530;2024-03-23T08:36:09;99089.84;;;13.30;nan
84248;BME280;74387;44.536;18.530;2024-03-23T08:38:38;99087.53;;;13.45;nan
84248;BME280;74387;44.536;18.530;2024-03-23T08:41:09;99088.00;;;13.69;nan
84248;BME280;74387;44.536;18.530;2024-03-23T08:43:36;99081.63;;;13.76;nan
84248;BME280;74387;44.536;18.530;2024-03-23T08:46:10;99081.78;;;13.97;nan
84248;BME280;74387;44.536;18.530;2024-03-23T08:48:46;99068.31;;;14.07;nan
84248;BME280;74387;44.536;18.530;2024-03-23T08:51:15;99072.56;;;14.20;nan
84248;BME280;74387;44.536;18.530;2024-03-23T08:53:42;99058.13;;;14.36;nan
84248;BME280;74387;44.536;18.530;2024-03-23T08:56:09;99057.81;;;14.47;nan
84248;BME280;74387;44.536;18.530;2024-03-23T08:58:37;99052.06;;;14.57;nan
84248;BME280;74387;44.536;18.530;2024-03-23T09:01:07;99049.31;;;14.70;nan
84248;BME280;74387;44.536;18.530;2024-03-23T09:03:33;99046.44;;;14.86;nan
84248;BME280;74387;44.536;18.530;2024-03-23T09:06:02;99036.19;;;15.03;nan
84248;BME280;74387;44.536;18.530;2024-03-23T09:08:28;99034.75;;;15.11;nan
84248;BME280;74387;44.536;18.530;2024-03-23T09:10:54;99039.47;;;15.20;nan
84248;BME280;74387;44.536;18.530;2024-03-23T09:13:20;99032.47;;;15.31;nan
84248;BME280;74387;44.536;18.530;2024-03-23T09:15:47;99023.03;;;15.45;nan
84248;BME280;74387;44.536;18.530;2024-03-23T09:18:14;99012.56;;;15.56;nan
84248;BME280;74387;44.536;18.530;2024-03-23T09:20:40;99010.94;;;15.68;nan
84248;BME280;74387;44.536;18.530;2024-03-23T09:23:05;99006.06;;;15.85;nan
84248;BME280;74387;44.536;18.530;2024-03-23T09:25:31;99004.13;;;15.94;nan
84248;BME280;74387;44.536;18.530;2024-03-23T09:27:58;98990.41;;;16.07;nan
84248;BME280;74387;44.536;18.530;2024-03-23T09:30:24;98990.59;;;16.22;nan
84248;BME280;74387;44.536;18.530;2024-03-23T09:32:50;98989.44;;;16.41;nan
84248;BME280;74387;44.536;18.530;2024-03-23T09:35:16;98974.78;;;16.57;nan
84248;BME280;74387;44.536;18.530;2024-03-23T09:37:42;98974.38;;;16.67;nan
84248;BME280;74387;44.536;18.530;2024-03-23T09:40:11;98972.88;;;16.76;nan
84248;BME280;74387;44.536;18.530;2024-03-23T09:42:38;98964.69;;;16.94;nan
84248;BME280;74387;44.536;18.530;2024-03-23T09:45:13;98964.81;;;16.99;nan
84248;BME280;74387;44.536;18.530;2024-03-23T09:47:42;98960.59;;;17.08;nan
84248;BME280;74387;44.536;18.530;2024-03-23T09:50:09;98947.09;;;17.13;nan
84248;BME280;74387;44.536;18.530;2024-03-23T09:52:35;98948.13;;;17.25;nan
84248;BME280;74387;44.536;18.530;2024-03-23T09:55:01;98942.94;;;17.36;nan
84248;BME280;74387;44.536;18.530;2024-03-23T09:57:27;98942.00;;;17.48;nan
84248;BME280;74387;44.536;18.530;2024-03-23T09:59:53;98940.78;;;17.58;nan
84248;BME280;74387;44.536;18.530;2024-03-23T10:02:21;98936.00;;;17.77;nan
84248;BME280;74387;44.536;18.530;2024-03-23T10:04:47;98929.28;;;17.87;nan
84248;BME280;74387;44.536;18.530;2024-03-23T10:07:15;98927.84;;;18.01;nan
84248;BME280;74387;44.536;18.530;2024-03-23T10:09:42;98917.63;;;18.11;nan
84248;BME280;74387;44.536;18.530;2024-03-23T10:12:13;98902.69;;;18.21;nan
84248;BME280;74387;44.536;18.530;2024-03-23T10:14:42;98905.19;;;18.33;nan
84248;BME280;74387;44.536;18.530;2024-03-23T10:17:26;98901.25;;;18.35;nan
84248;BME280;74387;44.536;18.530;2024-03-23T10:19:53;98891.84;;;18.36;nan
84248;BME280;74387;44.536;18.530;2024-03-23T10:22:23;98883.94;;;18.38;nan
84248;BME280;74387;44.536;18.530;2024-03-23T10:24:52;98889.47;;;18.43;nan
84248;BME280;74387;44.536;18.530;2024-03-23T10:27:20;98880.09;;;18.59;nan
84248;BME280;74387;44.536;18.530;2024-03-23T10:29:50;98877.53;;;18.79;nan
84248;BME280;74387;44.536;18.530;2024-03-23T10:32:17;98872.22;;;18.90;nan
84248;BME280;74387;44.536;18.530;2024-03-23T10:34:44;98859.88;;;18.95;nan
84248;BME280;74387;44.536;18.530;2024-03-23T10:37:11;98866.69;;;18.99;nan
84248;BME280;74387;44.536;18.530;2024-03-23T10:39:39;98863.28;;;19.05;nan
84248;BME280;74387;44.536;18.530;2024-03-23T10:42:09;98855.94;;;19.11;nan
84248;BME280;74387;44.536;18.530;2024-03-23T10:44:38;98842.03;;;19.29;nan
84248;BME280;74387;44.536;18.530;2024-03-23T10:47:05;98834.66;;;19.35;nan
84248;BME280;74387;44.536;18.530;2024-03-23T10:49:33;98831.06;;;19.44;nan
84248;BME280;74387;44.536;18.530;2024-03-23T10:52:01;98823.59;;;19.59;nan
84248;BME280;74387;44.536;18.530;2024-03-23T10:54:27;98812.31;;;19.72;nan
84248;BME280;74387;44.536;18.530;2024-03-23T10:57:09;98816.13;;;20.00;nan
84248;BME280;74387;44.536;18.530;2024-03-23T10:59:40;98806.53;;;20.10;nan
84248;BME280;74387;44.536;18.530;2024-03-23T11:02:06;98808.97;;;20.49;nan
84248;BME280;74387;44.536;18.530;2024-03-23T11:04:36;98796.69;;;20.39;nan
84248;BME280;74387;44.536;18.530;2024-03-23T11:07:28;98802.84;;;20.59;nan
84248;BME280;74387;44.536;18.530;2024-03-23T11:09:54;98795.06;;;20.52;nan
84248;BME280;74387;44.536;18.530;2024-03-23T11:17:27;98772.31;;;20.46;nan
84248;BME280;74387;44.536;18.530;2024-03-23T11:19:53;98772.88;;;20.50;nan
84248;BME280;74387;44.536;18.530;2024-03-23T11:22:42;98758.94;;;20.54;nan
84248;BME280;74387;44.536;18.530;2024-03-23T11:27:38;98757.31;;;20.68;nan
84248;BME280;74387;44.536;18.530;2024-03-23T11:32:47;98745.91;;;20.75;nan
84248;BME280;74387;44.536;18.530;2024-03-23T11:35:42;98740.28;;;20.89;nan
84248;BME280;74387;44.536;18.530;2024-03-23T11:38:13;98737.88;;;21.03;nan
84248;BME280;74387;44.536;18.530;2024-03-23T11:40:43;98727.19;;;21.05;nan
84248;BME280;74387;44.536;18.530;2024-03-23T11:43:18;98724.25;;;21.14;nan
84248;BME280;74387;44.536;18.530;2024-03-23T11:45:46;98707.84;;;21.25;nan
84248;BME280;74387;44.536;18.530;2024-03-23T11:48:14;98706.31;;;21.18;nan
84248;BME280;74387;44.536;18.530;2024-03-23T11:50:45;98694.88;;;21.25;nan
84248;BME280;74387;44.536;18.530;2024-03-23T11:53:19;98692.72;;;21.41;nan
84248;BME280;74387;44.536;18.530;2024-03-23T11:58:20;98687.09;;;21.72;nan
84248;BME280;74387;44.536;18.530;2024-03-23T12:01:10;98672.34;;;21.70;nan
84248;BME280;74387;44.536;18.530;2024-03-23T12:03:36;98666.38;;;21.71;nan
84248;BME280;74387;44.536;18.530;2024-03-23T12:06:03;98665.41;;;21.85;nan
84248;BME280;74387;44.536;18.530;2024-03-23T12:08:33;98656.66;;;21.87;nan
84248;BME280;74387;44.536;18.530;2024-03-23T12:11:06;98653.19;;;21.86;nan
84248;BME280;74387;44.536;18.530;2024-03-23T12:13:33;98643.94;;;21.84;nan
84248;BME280;74387;44.536;18.530;2024-03-23T12:16:16;98641.44;;;21.91;nan
84248;BME280;74387;44.536;18.530;2024-03-23T12:18:44;98635.22;;;22.02;nan
84248;BME280;74387;44.536;18.530;2024-03-23T12:21:11;98639.47;;;22.03;nan
84248;BME280;74387;44.536;18.530;2024-03-23T12:23:39;98632.50;;;22.08;nan
84248;BME280;74387;44.536;18.530;2024-03-23T12:26:06;98623.25;;;22.11;nan
84248;BME280;74387;44.536;18.530;2024-03-23T12:28:32;98614.50;;;22.29;nan
84248;BME280;74387;44.536;18.530;2024-03-23T12:30:58;98618.75;;;22.36;nan
84248;BME280;74387;44.536;18.530;2024-03-23T12:33:24;98613.00;;;22.39;nan
84248;BME280;74387;44.536;18.530;2024-03-23T12:35:51;98612.22;;;22.55;nan
84248;BME280;74387;44.536;18.530;2024-03-23T12:38:17;98598.00;;;22.51;nan
84248;BME280;74387;44.536;18.530;2024-03-23T12:40:47;98600.50;;;22.44;nan
84248;BME280;74387;44.536;18.530;2024-03-23T12:43:16;98594.75;;;22.47;nan
84248;BME280;74387;44.536;18.530;2024-03-23T12:45:49;98594.25;;;22.49;nan
84248;BME280;74387;44.536;18.530;2024-03-23T12:48:16;98582.75;;;22.50;nan
84248;BME280;74387;44.536;18.530;2024-03-23T12:50:42;98583.50;;;22.51;nan
84248;BME280;74387;44.536;18.530;2024-03-23T12:53:07;98572.72;;;22.58;nan
84248;BME280;74387;44.536;18.530;2024-03-23T12:55:37;98565.97;;;22.65;nan
84248;BME280;74387;44.536;18.530;2024-03-23T12:58:03;98576.69;;;22.80;nan
84248;BME280;74387;44.536;18.530;2024-03-23T13:00:30;98566.22;;;22.78;nan
84248;BME280;74387;44.536;18.530;2024-03-23T13:02:56;98555.91;;;22.84;nan
84248;BME280;74387;44.536;18.530;2024-03-23T13:05:22;98565.66;;;22.85;nan
84248;BME280;74387;44.536;18.530;2024-03-23T13:07:48;98556.72;;;22.68;nan
84248;BME280;74387;44.536;18.530;2024-03-23T13:10:14;98555.00;;;22.54;nan
84248;BME280;74387;44.536;18.530;2024-03-23T13:12:40;98546.50;;;22.52;nan
84248;BME280;74387;44.536;18.530;2024-03-23T13:15:08;98537.47;;;22.62;nan
84248;BME280;74387;44.536;18.530;2024-03-23T13:17:34;98537.22;;;22.72;nan
84248;BME280;74387;44.536;18.530;2024-03-23T13:20:00;98530.47;;;22.73;nan
84248;BME280;74387;44.536;18.530;2024-03-23T13:22:26;98527.94;;;22.80;nan
84248;BME280;74387;44.536;18.530;2024-03-23T13:24:51;98528.19;;;22.82;nan
84248;BME280;74387;44.536;18.530;2024-03-23T13:27:17;98523.66;;;22.90;nan
84248;BME280;74387;44.536;18.530;2024-03-23T13:29:44;98526.66;;;22.87;nan
84248;BME280;74387;44.536;18.530;2024-03-23T13:32:11;98525.19;;;22.80;nan
84248;BME280;74387;44.536;18.530;2024-03-23T13:34:37;98513.97;;;22.67;nan
84248;BME280;74387;44.536;18.530;2024-03-23T13:37:03;98508.50;;;22.61;nan
84248;BME280;74387;44.536;18.530;2024-03-23T13:39:30;98503.47;;;22.66;nan
84248;BME280;74387;44.536;18.530;2024-03-23T13:41:56;98500.00;;;22.59;nan
84248;BME280;74387;44.536;18.530;2024-03-23T13:44:22;98488.72;;;22.69;nan
84248;BME280;74387;44.536;18.530;2024-03-23T13:46:51;98497.97;;;22.66;nan
84248;BME280;74387;44.536;18.530;2024-03-23T13:49:30;98488.97;;;22.65;nan
84248;BME280;74387;44.536;18.530;2024-03-23T13:51:58;98484.72;;;22.70;nan
84248;BME280;74387;44.536;18.530;2024-03-23T13:54:27;98481.25;;;22.63;nan
84248;BME280;74387;44.536;18.530;2024-03-23T13:56:55;98482.97;;;22.72;nan
84248;BME280;74387;44.536;18.530;2024-03-23T13:59:21;98473.47;;;22.73;nan
84248;BME280;74387;44.536;18.530;2024-03-23T14:01:48;98467.72;;;22.71;nan
84248;BME280;74387;44.536;18.530;2024-03-23T14:04:15;98467.44;;;22.75;nan
84248;BME280;74387;44.536;18.530;2024-03-23T14:06:48;98470.41;;;22.82;nan
84248;BME280;74387;44.536;18.530;2024-03-23T14:09:14;98460.44;;;22.79;nan
84248;BME280;74387;44.536;18.530;2024-03-23T14:11:41;98458.69;;;22.76;nan
84248;BME280;74387;44.536;18.530;2024-03-23T14:14:08;98451.47;;;22.73;nan
84248;BME280;74387;44.536;18.530;2024-03-23T14:16:35;98445.00;;;22.65;nan
84248;BME280;74387;44.536;18.530;2024-03-23T14:19:01;98448.22;;;22.69;nan
84248;BME280;74387;44.536;18.530;2024-03-23T14:21:26;98438.25;;;22.66;nan
84248;BME280;74387;44.536;18.530;2024-03-23T14:23:52;98444.50;;;22.61;nan